createdAt,value
2022-11-27T00:02:14.418Z,0.68
2022-11-27T00:04:50.906Z,2.85
2022-11-27T00:07:18.577Z,2.70
2022-11-27T00:09:48.636Z,2.42
2022-11-27T00:12:18.979Z,4.15
2022-11-27T00:14:46.401Z,5.38
2022-11-27T00:17:17.135Z,2.47
2022-11-27T00:19:49.955Z,1.60
2022-11-27T00:22:20.128Z,2.92
2022-11-27T00:24:47.224Z,1.98
2022-11-27T00:27:14.538Z,3.95
2022-11-27T00:29:41.848Z,2.50
2022-11-27T00:32:10.409Z,2.30
2022-11-27T00:34:38.689Z,3.70
2022-11-27T00:37:15.607Z,0.30
2022-11-27T00:39:42.815Z,1.65
2022-11-27T00:42:15.323Z,2.22
2022-11-27T00:44:51.921Z,3.95
2022-11-27T00:47:22.018Z,0.82
2022-11-27T00:49:52.204Z,0.73
2022-11-27T00:52:19.602Z,2.00
2022-11-27T00:54:46.625Z,1.80
2022-11-27T00:57:13.862Z,1.30
2022-11-27T00:59:41.223Z,1.70
2022-11-27T01:05:51.210Z,3.53
2022-11-27T01:17:54.707Z,1.92
2022-11-27T01:20:27.281Z,1.33
2022-11-27T01:25:53.437Z,1.75
2022-11-27T01:31:34.452Z,2.72
2022-11-27T01:34:28.620Z,2.63
2022-11-27T01:36:58.284Z,4.53
2022-11-27T01:39:42.749Z,3.45
2022-11-27T01:43:01.471Z,1.63
2022-11-27T01:45:41.668Z,0.73
2022-11-27T01:48:13.668Z,0.93
2022-11-27T01:50:41.933Z,3.65
2022-11-27T01:53:25.088Z,0.60
2022-11-27T01:56:08.097Z,0.60
2022-11-27T01:59:09.271Z,2.90
2022-11-27T02:01:40.696Z,4.13
2022-11-27T02:04:12.051Z,1.55
2022-11-27T02:07:10.227Z,2.30
2022-11-27T02:10:10.934Z,2.75
2022-11-27T02:13:11.132Z,2.30
2022-11-27T02:16:03.095Z,1.58
2022-11-27T02:18:55.256Z,1.83
2022-11-27T02:21:59.946Z,2.47
2022-11-27T02:24:51.016Z,2.95
2022-11-27T02:27:33.967Z,1.42
2022-11-27T02:30:04.072Z,1.23
2022-11-27T02:33:00.370Z,1.45
2022-11-27T02:35:50.697Z,5.03
2022-11-27T02:38:25.244Z,1.63
2022-11-27T02:41:10.109Z,4.25
2022-11-27T02:43:45.571Z,2.40
2022-11-27T02:46:14.717Z,1.40
2022-11-27T02:48:53.526Z,1.95
2022-11-27T02:51:26.758Z,1.10
2022-11-27T02:53:58.452Z,5.18
2022-11-27T02:56:30.190Z,0.85
2022-11-27T02:59:02.241Z,5.60
2022-11-27T03:01:34.750Z,1.75
2022-11-27T03:04:06.980Z,1.42
2022-11-27T03:06:41.474Z,1.60
2022-11-27T03:09:24.826Z,1.42
2022-11-27T03:11:52.469Z,1.33
2022-11-27T03:14:24.710Z,1.25
2022-11-27T03:17:00.747Z,2.42
2022-11-27T03:19:40.660Z,1.90
2022-11-27T03:22:08.145Z,1.58
2022-11-27T03:24:36.464Z,2.50
2022-11-27T03:27:05.181Z,9.05
2022-11-27T03:29:46.875Z,3.53
2022-11-27T03:32:14.755Z,1.67
2022-11-27T03:34:42.627Z,1.80
2022-11-27T03:37:10.449Z,1.95
2022-11-27T03:39:37.862Z,2.55
2022-11-27T03:42:31.154Z,2.17
2022-11-27T03:45:36.395Z,2.80
2022-11-27T03:48:15.557Z,1.42
2022-11-27T03:50:59.817Z,1.77
2022-11-27T03:53:35.536Z,1.02
2022-11-27T03:56:28.029Z,0.50
2022-11-27T03:59:09.510Z,1.52
2022-11-27T04:01:37.447Z,2.50
2022-11-27T04:06:31.969Z,2.25
2022-11-27T04:09:00.843Z,0.60
2022-11-27T04:11:28.140Z,0.93
2022-11-27T04:13:55.256Z,2.65
2022-11-27T04:16:22.824Z,2.28
2022-11-27T04:18:50.008Z,2.03
2022-11-27T04:21:17.388Z,0.50
2022-11-27T04:23:48.171Z,1.77
2022-11-27T04:26:15.435Z,3.63
2022-11-27T04:28:42.899Z,1.55
2022-11-27T04:31:09.969Z,1.70
2022-11-27T04:33:37.315Z,0.98
2022-11-27T04:36:04.670Z,1.65
2022-11-27T04:38:31.929Z,0.55
2022-11-27T04:40:59.517Z,2.15
2022-11-27T04:43:26.986Z,2.30
2022-11-27T04:45:54.215Z,1.55
2022-11-27T04:48:21.303Z,2.05
2022-11-27T04:50:48.462Z,2.03
2022-11-27T04:53:15.568Z,1.77
2022-11-27T04:55:43.135Z,2.50
2022-11-27T04:58:12.238Z,0.98
2022-11-27T05:00:39.320Z,0.73
2022-11-27T05:03:06.726Z,2.22
2022-11-27T05:05:33.960Z,3.20
2022-11-27T05:08:00.994Z,1.38
2022-11-27T05:10:28.166Z,4.20
2022-11-27T05:12:55.467Z,4.72
2022-11-27T05:15:22.745Z,1.60
2022-11-27T05:17:49.864Z,1.65
2022-11-27T05:20:17.135Z,5.47
2022-11-27T05:22:45.346Z,2.05
2022-11-27T05:25:12.465Z,2.83
2022-11-27T05:27:40.035Z,2.47
2022-11-27T05:30:08.171Z,2.28
2022-11-27T05:32:35.297Z,2.10
2022-11-27T05:35:02.673Z,1.33
2022-11-27T05:37:32.970Z,0.70
2022-11-27T05:40:00.042Z,0.52
2022-11-27T05:42:29.255Z,2.70
2022-11-27T05:44:58.427Z,1.38
2022-11-27T05:47:26.041Z,3.65
2022-11-27T05:49:53.433Z,0.20
2022-11-27T05:52:20.545Z,2.33
2022-11-27T05:54:47.714Z,1.43
2022-11-27T05:57:24.060Z,5.15
2022-11-27T05:59:54.193Z,0.45
2022-11-27T06:02:26.425Z,2.03
2022-11-27T06:04:56.254Z,1.10
2022-11-27T06:07:23.346Z,3.67
2022-11-27T06:09:50.898Z,11.85
2022-11-27T06:12:20.943Z,3.58
2022-11-27T06:14:48.063Z,1.55
2022-11-27T06:17:18.273Z,1.05
2022-11-27T06:19:45.667Z,1.90
2022-11-27T06:37:39.147Z,1.65
2022-11-27T06:40:07.416Z,1.50
2022-11-27T06:42:34.548Z,3.03
2022-11-27T06:45:01.591Z,3.05
2022-11-27T06:47:28.651Z,5.63
2022-11-27T06:49:55.681Z,6.43
2022-11-27T06:52:22.684Z,7.50
2022-11-27T06:54:49.947Z,4.67
2022-11-27T06:57:16.957Z,5.93
2022-11-27T06:59:44.094Z,6.27
2022-11-27T07:02:15.452Z,9.02
2022-11-27T07:04:42.698Z,4.28
2022-11-27T07:07:10.035Z,7.57
2022-11-27T07:09:37.276Z,6.03
2022-11-27T07:12:08.464Z,6.05
2022-11-27T07:14:35.439Z,4.43
2022-11-27T07:17:02.573Z,2.78
2022-11-27T07:19:29.660Z,5.68
2022-11-27T07:21:56.837Z,4.90
2022-11-27T07:24:23.926Z,7.93
2022-11-27T07:26:51.216Z,6.60
2022-11-27T07:29:18.221Z,4.55
2022-11-27T07:31:45.824Z,3.80
2022-11-27T07:34:17.145Z,4.80
2022-11-27T07:36:47.169Z,7.20
2022-11-27T07:39:14.508Z,6.93
2022-11-27T07:41:41.596Z,4.57
2022-11-27T07:44:11.718Z,8.67
2022-11-27T07:46:38.818Z,8.15
2022-11-27T07:49:06.048Z,7.57
2022-11-27T07:51:33.226Z,8.23
2022-11-27T07:54:00.623Z,13.20
2022-11-27T07:56:28.214Z,10.05
2022-11-27T07:58:57.368Z,9.10
2022-11-27T08:01:28.232Z,15.25
2022-11-27T08:03:55.487Z,21.38
2022-11-27T08:06:24.822Z,19.05
2022-11-27T08:08:52.530Z,12.73
2022-11-27T08:11:25.464Z,7.30
2022-11-27T08:13:57.515Z,6.93
2022-11-27T08:16:25.282Z,8.55
2022-11-27T08:18:53.052Z,8.05
2022-11-27T08:21:20.601Z,4.80
2022-11-27T08:23:48.397Z,8.77
2022-11-27T08:26:15.862Z,8.25
2022-11-27T08:28:43.715Z,4.57
2022-11-27T08:31:13.710Z,13.30
2022-11-27T08:33:41.233Z,4.30
2022-11-27T08:36:12.568Z,10.13
2022-11-27T08:38:42.417Z,11.20
2022-11-27T08:41:10.017Z,10.82
2022-11-27T08:43:37.182Z,13.63
2022-11-27T08:46:06.766Z,8.88
2022-11-27T08:48:36.246Z,8.40
2022-11-27T08:51:12.721Z,8.07
2022-11-27T08:53:40.434Z,6.15
2022-11-27T08:56:16.966Z,6.65
2022-11-27T08:58:45.400Z,13.68
2022-11-27T09:01:16.965Z,11.57
2022-11-27T09:03:44.178Z,9.70
2022-11-27T09:06:13.680Z,13.82
2022-11-27T09:08:42.476Z,13.27
2022-11-27T09:11:10.374Z,10.40
2022-11-27T09:13:38.397Z,11.48
2022-11-27T09:18:34.608Z,8.52
2022-11-27T09:21:04.838Z,8.60
2022-11-27T09:23:32.429Z,8.40
2022-11-27T09:26:04.255Z,11.73
2022-11-27T09:28:35.607Z,10.13
2022-11-27T09:31:04.687Z,19.67
2022-11-27T09:33:33.759Z,28.27
2022-11-27T09:36:07.055Z,13.10
2022-11-27T09:38:34.640Z,13.30
2022-11-27T09:41:11.623Z,5.20
2022-11-27T09:43:53.941Z,22.35
2022-11-27T09:46:33.837Z,12.75
2022-11-27T09:49:05.443Z,15.63
2022-11-27T09:51:43.649Z,8.60
2022-11-27T09:54:23.976Z,10.27
2022-11-27T09:56:53.695Z,10.52
2022-11-27T09:59:24.240Z,7.60
2022-11-27T10:01:52.292Z,11.18
2022-11-27T10:04:21.268Z,16.30
2022-11-27T10:07:13.742Z,5.85
2022-11-27T10:10:03.500Z,3.97
2022-11-27T10:13:00.427Z,6.80
2022-11-27T10:15:45.993Z,9.75
2022-11-27T10:18:57.922Z,5.38
2022-11-27T10:21:44.304Z,2.63
2022-11-27T10:24:46.498Z,2.47
2022-11-27T10:27:44.241Z,2.58
2022-11-27T10:30:18.202Z,1.35
2022-11-27T10:32:55.242Z,1.45
2022-11-27T10:35:26.433Z,0.60
2022-11-27T10:37:59.877Z,1.33
2022-11-27T10:40:55.029Z,2.88
2022-11-27T10:43:25.652Z,1.63
2022-11-27T10:46:18.761Z,1.83
2022-11-27T10:48:45.922Z,4.00
2022-11-27T10:51:21.398Z,0.93
2022-11-27T10:53:53.542Z,0.50
2022-11-27T10:56:42.308Z,0.50
2022-11-27T10:59:23.275Z,1.48
2022-11-27T11:01:55.273Z,2.38
2022-11-27T11:04:43.269Z,1.05
2022-11-27T11:07:30.672Z,6.25
2022-11-27T11:09:57.898Z,1.17
2022-11-27T11:12:25.243Z,8.45
2022-11-27T11:15:01.199Z,1.75
2022-11-27T11:17:35.079Z,2.15
2022-11-27T11:20:20.670Z,0.68
2022-11-27T11:22:49.074Z,1.27
2022-11-27T11:25:21.014Z,1.08
2022-11-27T11:27:50.735Z,1.52
2022-11-27T11:30:28.890Z,0.47
2022-11-27T11:33:04.336Z,0.77
2022-11-27T11:35:35.121Z,0.82
2022-11-27T11:38:05.215Z,1.73
2022-11-27T11:40:35.567Z,1.92
2022-11-27T11:43:06.966Z,3.58
2022-11-27T11:45:35.482Z,3.78
2022-11-27T11:48:26.827Z,1.83
2022-11-27T11:51:18.801Z,1.60
2022-11-27T11:54:08.320Z,5.32
2022-11-27T11:56:46.187Z,4.55
2022-11-27T12:02:11.003Z,1.73
2022-11-27T12:05:04.266Z,0.52
2022-11-27T12:07:52.181Z,3.67
2022-11-27T12:10:45.993Z,1.88
2022-11-27T12:13:40.749Z,1.25
2022-11-27T12:16:48.738Z,2.85
2022-11-27T12:19:45.510Z,3.55
2022-11-27T12:22:40.525Z,1.30
2022-11-27T12:25:28.514Z,0.70
2022-11-27T12:28:33.394Z,2.78
2022-11-27T12:31:11.745Z,3.20
2022-11-27T12:33:49.152Z,2.80
2022-11-27T12:36:43.354Z,2.22
2022-11-27T12:40:47.676Z,1.33
2022-11-27T12:43:25.854Z,1.50
2022-11-27T12:46:04.890Z,1.33
2022-11-27T12:48:45.538Z,1.80
2022-11-27T12:51:29.777Z,2.75
2022-11-27T12:54:18.786Z,2.50
2022-11-27T12:56:58.245Z,3.45
2022-11-27T12:59:48.164Z,1.88
2022-11-27T13:02:28.921Z,1.92
2022-11-27T13:05:16.761Z,1.55
2022-11-27T13:07:52.771Z,3.85
2022-11-27T13:10:38.563Z,0.77
2022-11-27T13:13:25.832Z,3.95
2022-11-27T13:16:01.539Z,5.63
2022-11-27T13:18:41.993Z,0.93
2022-11-27T13:21:17.855Z,2.15
2022-11-27T13:23:45.164Z,7.47
2022-11-27T13:26:21.979Z,9.40
2022-11-27T13:28:57.925Z,2.88
2022-11-27T13:31:31.731Z,5.38
2022-11-27T13:34:07.424Z,3.95
2022-11-27T13:36:40.225Z,1.98
2022-11-27T13:39:21.673Z,3.70
2022-11-27T13:41:49.545Z,2.42
2022-11-27T13:44:27.377Z,8.13
2022-11-27T13:49:38.346Z,3.53
2022-11-27T13:52:18.311Z,2.78
2022-11-27T13:55:20.187Z,4.55
2022-11-27T13:57:53.729Z,2.00
2022-11-27T14:00:42.631Z,2.47
2022-11-27T14:03:23.854Z,2.65
2022-11-27T14:05:51.032Z,1.45
2022-11-27T14:08:22.157Z,1.95
2022-11-27T14:11:00.671Z,2.75
2022-11-27T14:13:50.544Z,6.25
2022-11-27T14:16:32.865Z,5.03
2022-11-27T14:19:08.768Z,3.35
2022-11-27T14:21:44.409Z,2.10
2022-11-27T14:24:35.030Z,4.85
2022-11-27T14:27:16.107Z,1.23
2022-11-27T14:29:43.479Z,4.28
2022-11-27T14:32:14.292Z,2.25
2022-11-27T14:34:42.414Z,3.00
2022-11-27T14:37:39.406Z,3.65
2022-11-27T14:40:20.761Z,2.55
2022-11-27T14:42:48.313Z,3.63
2022-11-27T14:45:18.352Z,3.90
2022-11-27T14:47:55.967Z,4.82
2022-11-27T14:50:23.818Z,2.95
2022-11-27T14:52:56.919Z,3.42
2022-11-27T15:00:58.555Z,1.55
2022-11-27T15:03:27.235Z,3.35
2022-11-27T15:06:03.265Z,1.60
2022-11-27T15:08:35.656Z,3.95
2022-11-27T15:11:05.309Z,3.60
2022-11-27T15:13:42.386Z,2.10
2022-11-27T15:16:23.474Z,2.45
2022-11-27T15:18:58.626Z,2.40
2022-11-27T15:21:26.826Z,4.82
2022-11-27T15:24:42.744Z,3.28
2022-11-27T15:27:16.108Z,2.33
2022-11-27T15:30:17.857Z,4.22
2022-11-27T15:33:08.149Z,6.78
2022-11-27T15:35:54.021Z,4.97
2022-11-27T15:38:22.511Z,8.93
2022-11-27T15:41:11.296Z,14.27
2022-11-27T15:43:38.844Z,8.13
2022-11-27T15:46:12.491Z,7.28
2022-11-27T15:55:27.525Z,3.50
2022-11-27T16:01:26.145Z,3.58
2022-11-27T16:04:08.431Z,2.92
2022-11-27T16:07:01.447Z,4.68
2022-11-27T16:10:34.802Z,4.28
2022-11-27T16:13:38.184Z,2.47
2022-11-27T16:19:35.605Z,6.82
2022-11-27T16:29:15.487Z,2.70
2022-11-27T16:31:55.823Z,2.22
2022-11-27T16:47:38.174Z,3.85
2022-11-27T16:50:19.978Z,2.20
2022-11-27T16:53:14.139Z,4.95
2022-11-27T16:56:16.833Z,4.25
2022-11-27T17:00:03.387Z,8.80
2022-11-27T17:09:19.878Z,4.93
2022-11-27T17:12:55.303Z,5.28
2022-11-27T17:15:28.844Z,3.25
2022-11-27T17:17:58.786Z,20.25
2022-11-27T17:20:26.948Z,8.13
2022-11-27T17:22:54.448Z,4.55
2022-11-27T17:25:21.675Z,4.72
2022-11-27T17:27:49.465Z,7.57
2022-11-27T17:30:16.815Z,8.95
2022-11-27T17:32:44.036Z,14.88
2022-11-27T17:35:11.123Z,19.80
2022-11-27T17:37:38.288Z,24.58
2022-11-27T17:40:06.173Z,11.60
2022-11-27T17:42:33.240Z,14.48
2022-11-27T17:45:00.594Z,7.33
2022-11-27T17:47:28.185Z,13.15
2022-11-27T17:49:55.301Z,6.95
2022-11-27T17:52:22.590Z,6.10
2022-11-27T17:54:49.740Z,12.18
2022-11-27T17:57:16.804Z,9.18
2022-11-27T17:59:44.287Z,5.47
2022-11-27T18:02:12.632Z,7.88
2022-11-27T18:04:39.934Z,7.53
2022-11-27T18:07:07.080Z,5.35
2022-11-27T18:09:34.509Z,3.25
2022-11-27T18:12:01.574Z,2.88
2022-11-27T18:14:29.711Z,4.13
2022-11-27T18:19:25.108Z,2.80
2022-11-27T18:21:52.554Z,3.50
2022-11-27T18:24:24.431Z,6.22
2022-11-27T18:29:43.081Z,3.20
2022-11-27T18:36:06.043Z,5.47
2022-11-27T18:49:28.450Z,4.05
2022-11-27T18:55:37.677Z,5.30
2022-11-27T19:06:28.221Z,6.80
2022-11-27T19:08:56.821Z,4.70
2022-11-27T19:11:40.087Z,4.35
2022-11-27T19:14:09.404Z,7.93
2022-11-27T19:16:50.962Z,5.10
2022-11-27T19:22:34.283Z,6.07
2022-11-27T19:25:20.043Z,5.28
2022-11-27T19:28:23.148Z,4.05
2022-11-27T19:31:04.175Z,7.07
2022-11-27T19:33:48.948Z,4.65
2022-11-27T19:36:26.318Z,6.18
2022-11-27T19:39:38.225Z,5.90
2022-11-27T19:42:09.781Z,6.35
2022-11-27T19:45:37.228Z,3.17
2022-11-27T19:48:05.840Z,4.28
2022-11-27T19:54:34.763Z,6.95
2022-11-27T20:09:31.723Z,7.20
2022-11-27T20:19:22.890Z,6.88
2022-11-27T20:22:04.086Z,2.88
2022-11-27T20:25:04.111Z,5.47
2022-11-27T20:27:47.303Z,4.35
2022-11-27T20:30:38.976Z,6.25
2022-11-27T20:34:20.702Z,7.50
2022-11-27T20:44:39.166Z,4.93
2022-11-27T20:51:02.023Z,5.22
2022-11-27T20:53:35.725Z,8.27
2022-11-27T20:59:32.259Z,9.13
2022-11-27T21:02:45.745Z,4.90
2022-11-27T21:17:16.438Z,2.65
2022-11-27T21:23:06.321Z,4.63
2022-11-27T21:26:54.219Z,5.70
2022-11-27T21:42:27.616Z,3.78
2022-11-27T22:04:10.701Z,2.38
2022-11-27T22:07:13.474Z,3.83
2022-11-27T22:18:10.268Z,8.20
2022-11-27T22:22:53.617Z,7.80
2022-11-27T22:25:42.063Z,3.75
2022-11-27T22:28:47.000Z,5.53
2022-11-27T22:31:20.224Z,4.38
2022-11-27T22:34:14.822Z,5.82
2022-11-27T22:37:20.406Z,3.47
2022-11-27T22:39:54.299Z,4.50
2022-11-27T22:42:33.490Z,3.38
2022-11-27T22:45:12.885Z,4.53
2022-11-27T22:47:44.681Z,4.32
2022-11-27T22:50:12.960Z,4.47
2022-11-27T22:52:58.127Z,4.53
2022-11-27T22:55:35.018Z,2.70
2022-11-27T23:01:27.284Z,3.10
2022-11-27T23:04:03.703Z,3.67
2022-11-27T23:06:51.139Z,4.30
2022-11-27T23:12:41.144Z,5.97
2022-11-27T23:18:56.982Z,4.10
2022-11-27T23:28:16.072Z,3.90
2022-11-27T23:33:58.082Z,5.18
2022-11-27T23:47:29.245Z,3.53
2022-11-27T23:53:14.442Z,3.42
2022-11-27T23:55:53.511Z,3.72
2022-11-27T23:58:37.210Z,2.47
